createdAt,value
2017-12-12T00:00:08.341Z,8.40
2017-12-12T00:14:15.282Z,8.00
2017-12-12T00:19:52.312Z,8.00
2017-12-12T00:22:34.693Z,7.90
2017-12-12T00:25:12.168Z,7.70
2017-12-12T00:28:20.889Z,7.70
2017-12-12T00:33:48.725Z,7.60
2017-12-12T00:36:22.600Z,7.50
2017-12-12T00:42:11.773Z,7.40
2017-12-12T00:44:53.588Z,7.30
2017-12-12T00:47:38.885Z,7.40
2017-12-12T00:50:22.200Z,7.30
2017-12-12T00:52:54.867Z,7.30
2017-12-12T00:55:23.651Z,7.20
2017-12-12T00:57:58.775Z,7.20
2017-12-12T01:00:31.230Z,7.20
2017-12-12T01:03:03.939Z,7.20
2017-12-12T01:05:33.906Z,7.20
2017-12-12T01:08:10.293Z,7.10
2017-12-12T01:10:41.813Z,7.10
2017-12-12T01:13:27.791Z,7.10
2017-12-12T01:16:02.872Z,7.00
2017-12-12T01:18:33.416Z,6.90
2017-12-12T01:21:07.080Z,6.80
2017-12-12T01:23:38.596Z,6.90
2017-12-12T01:26:07.896Z,6.80
2017-12-12T01:31:18.921Z,6.60
2017-12-12T01:33:49.664Z,6.60
2017-12-12T01:36:28.882Z,6.50
2017-12-12T01:39:06.630Z,6.40
2017-12-12T01:41:35.588Z,6.40
2017-12-12T01:44:07.654Z,6.40
2017-12-12T01:46:41.390Z,6.40
2017-12-12T01:49:10.152Z,6.30
2017-12-12T01:51:42.913Z,6.20
2017-12-12T01:54:19.355Z,6.20
2017-12-12T01:56:50.050Z,6.20
2017-12-12T01:59:18.601Z,6.20
2017-12-12T02:01:51.161Z,6.30
2017-12-12T02:04:21.955Z,6.20
2017-12-12T02:06:57.115Z,6.00
2017-12-12T02:09:30.009Z,6.00
2017-12-12T02:12:05.130Z,5.80
2017-12-12T02:14:42.719Z,5.60
2017-12-12T02:17:19.007Z,5.60
2017-12-12T02:19:55.653Z,5.60
2017-12-12T02:22:28.998Z,5.60
2017-12-12T02:25:01.666Z,5.50
2017-12-12T02:27:32.663Z,5.50
2017-12-12T02:30:03.697Z,5.50
2017-12-12T02:32:37.914Z,5.50
2017-12-12T02:35:07.979Z,5.50
2017-12-12T02:37:38.448Z,5.20
2017-12-12T02:43:04.703Z,5.30
2017-12-12T02:45:39.375Z,5.30
2017-12-12T02:48:13.536Z,5.30
2017-12-12T02:50:51.876Z,5.30
2017-12-12T02:53:23.704Z,5.10
2017-12-12T02:55:56.991Z,5.20
2017-12-12T02:58:27.583Z,5.20
2017-12-12T03:03:59.183Z,5.20
2017-12-12T03:06:31.604Z,5.20
2017-12-12T03:09:00.617Z,5.20
2017-12-12T03:11:32.266Z,5.20
2017-12-12T03:14:03.204Z,5.10
2017-12-12T03:16:43.627Z,5.20
2017-12-12T03:19:18.567Z,5.10
2017-12-12T03:21:53.688Z,5.10
2017-12-12T03:24:31.975Z,5.00
2017-12-12T03:27:07.719Z,5.00
2017-12-12T03:29:41.413Z,5.00
2017-12-12T03:32:15.005Z,5.00
2017-12-12T03:34:50.745Z,5.10
2017-12-12T03:40:13.328Z,4.90
2017-12-12T03:48:55.039Z,4.40
2017-12-12T03:54:57.034Z,4.40
2017-12-12T03:57:31.352Z,4.30
2017-12-12T04:02:52.082Z,4.50
2017-12-12T04:05:22.982Z,4.50
2017-12-12T04:07:54.868Z,4.40
2017-12-12T04:10:26.371Z,4.30
2017-12-12T04:12:57.558Z,4.30
2017-12-12T04:15:29.989Z,4.30
2017-12-12T04:18:02.243Z,4.20
2017-12-12T04:20:32.614Z,4.20
2017-12-12T04:31:15.961Z,4.50
2017-12-12T04:33:48.354Z,4.60
2017-12-12T04:36:24.341Z,4.60
2017-12-12T04:38:56.964Z,4.60
2017-12-12T04:44:33.549Z,4.60
2017-12-12T04:47:05.915Z,4.40
2017-12-12T04:55:19.806Z,4.30
2017-12-12T04:57:51.722Z,4.20
2017-12-12T05:00:25.107Z,4.30
2017-12-12T05:02:56.585Z,4.20
2017-12-12T05:05:25.324Z,4.20
2017-12-12T05:08:02.642Z,4.20
2017-12-12T05:16:24.556Z,4.10
2017-12-12T05:18:55.001Z,4.20
2017-12-12T05:24:06.052Z,4.20
2017-12-12T05:26:53.440Z,4.20
2017-12-12T05:29:28.713Z,4.10
2017-12-12T05:32:15.697Z,4.00
2017-12-12T05:34:58.823Z,3.90
2017-12-12T05:37:33.233Z,3.90
2017-12-12T05:40:03.946Z,4.00
2017-12-12T05:42:34.789Z,4.10
2017-12-12T05:45:07.432Z,4.20
2017-12-12T05:47:38.152Z,4.20
2017-12-12T05:50:12.693Z,4.30
2017-12-12T05:52:44.635Z,4.30
2017-12-12T05:55:21.474Z,4.30
2017-12-12T05:58:02.196Z,4.40
2017-12-12T06:06:11.720Z,4.40
2017-12-12T06:08:52.964Z,4.40
2017-12-12T06:14:36.370Z,4.40
2017-12-12T06:17:05.861Z,4.40
2017-12-12T06:22:24.773Z,4.40
2017-12-12T06:28:05.064Z,4.40
2017-12-12T06:30:41.054Z,4.30
2017-12-12T06:33:15.243Z,4.40
2017-12-12T06:35:46.115Z,4.40
2017-12-12T06:38:15.385Z,4.40
2017-12-12T06:40:54.273Z,4.40
2017-12-12T06:46:12.283Z,4.40
2017-12-12T06:48:44.295Z,4.50
2017-12-12T06:53:52.557Z,4.50
2017-12-12T06:56:27.853Z,4.50
2017-12-12T07:04:29.423Z,4.40
2017-12-12T07:10:00.659Z,4.40
2017-12-12T07:12:32.263Z,4.40
2017-12-12T07:14:59.816Z,4.40
2017-12-12T07:17:31.665Z,4.40
2017-12-12T07:20:05.979Z,4.40
2017-12-12T07:22:37.198Z,4.40
2017-12-12T07:25:05.738Z,4.30
2017-12-12T07:27:42.228Z,4.40
2017-12-12T07:30:11.979Z,4.40
2017-12-12T07:32:43.608Z,4.40
2017-12-12T07:35:16.559Z,4.40
2017-12-12T07:37:45.749Z,4.40
2017-12-12T07:40:14.276Z,4.30
2017-12-12T07:42:43.809Z,4.40
2017-12-12T07:45:14.060Z,4.40
2017-12-12T07:47:44.211Z,4.40
2017-12-12T07:50:11.806Z,4.50
2017-12-12T07:52:40.059Z,4.50
2017-12-12T07:55:09.440Z,4.50
2017-12-12T07:57:43.920Z,4.50
2017-12-12T08:00:14.170Z,4.40
2017-12-12T08:02:43.335Z,4.40
2017-12-12T08:05:15.012Z,4.40
2017-12-12T08:07:46.415Z,4.50
2017-12-12T08:10:15.654Z,4.50
2017-12-12T08:15:21.208Z,4.60
2017-12-12T08:17:51.633Z,4.60
2017-12-12T08:20:20.739Z,4.60
2017-12-12T08:22:53.985Z,4.60
2017-12-12T08:25:23.244Z,4.70
2017-12-12T08:27:56.339Z,4.70
2017-12-12T08:30:25.779Z,4.70
2017-12-12T08:32:56.750Z,4.70
2017-12-12T08:35:25.927Z,4.70
2017-12-12T08:37:58.994Z,4.70
2017-12-12T08:40:28.275Z,4.80
2017-12-12T08:42:59.540Z,4.80
2017-12-12T08:45:28.991Z,4.80
2017-12-12T08:48:07.644Z,4.80
2017-12-12T08:50:36.787Z,4.70
2017-12-12T08:53:07.153Z,4.70
2017-12-12T08:55:41.497Z,4.70
2017-12-12T08:58:11.874Z,4.80
2017-12-12T09:00:49.373Z,4.80
2017-12-12T09:03:24.038Z,4.80
2017-12-12T09:05:53.636Z,4.80
2017-12-12T09:08:32.476Z,4.90
2017-12-12T09:11:01.694Z,4.90
2017-12-12T09:13:33.490Z,4.90
2017-12-12T09:16:04.747Z,4.80
2017-12-12T09:18:35.881Z,4.90
2017-12-12T09:21:04.400Z,4.90
2017-12-12T09:23:35.206Z,4.90
2017-12-12T09:28:50.709Z,4.90
2017-12-12T09:31:21.196Z,4.90
2017-12-12T09:33:55.367Z,4.90
2017-12-12T09:36:27.442Z,5.00
2017-12-12T09:38:59.265Z,5.10
2017-12-12T09:41:28.307Z,5.10
2017-12-12T09:43:59.912Z,5.10
2017-12-12T09:46:31.907Z,5.10
2017-12-12T09:49:04.151Z,5.10
2017-12-12T09:51:34.087Z,5.10
2017-12-12T09:54:11.837Z,5.10
2017-12-12T09:56:40.223Z,5.10
2017-12-12T09:59:10.727Z,5.20
2017-12-12T10:01:42.507Z,5.30
2017-12-12T10:04:11.019Z,5.30
2017-12-12T10:06:43.404Z,5.40
2017-12-12T10:09:15.963Z,5.50
2017-12-12T10:11:45.610Z,5.50
2017-12-12T10:14:14.611Z,5.40
2017-12-12T10:16:49.920Z,5.40
2017-12-12T10:19:20.384Z,5.50
2017-12-12T10:21:55.211Z,5.50
2017-12-12T10:24:28.556Z,5.40
2017-12-12T10:27:00.244Z,5.50
2017-12-12T10:29:29.592Z,5.50
2017-12-12T10:31:58.119Z,5.50
2017-12-12T10:34:25.687Z,5.50
2017-12-12T10:36:53.266Z,5.50
2017-12-12T10:39:25.397Z,5.60
2017-12-12T10:41:56.931Z,5.60
2017-12-12T10:44:26.047Z,5.60
2017-12-12T10:46:59.578Z,5.70
2017-12-12T10:49:31.171Z,5.70
2017-12-12T10:52:00.053Z,5.60
2017-12-12T10:54:28.372Z,5.60
2017-12-12T10:56:58.824Z,5.60
2017-12-12T10:59:26.970Z,5.60
2017-12-12T11:01:58.140Z,5.60
2017-12-12T11:04:30.879Z,5.60
2017-12-12T11:07:01.971Z,5.50
2017-12-12T11:09:32.019Z,5.40
2017-12-12T11:12:04.426Z,5.40
2017-12-12T11:14:35.727Z,5.40
2017-12-12T11:17:07.451Z,5.40
2017-12-12T11:19:41.484Z,5.50
2017-12-12T11:22:13.197Z,5.50
2017-12-12T11:24:42.617Z,5.50
2017-12-12T11:27:12.247Z,5.50
2017-12-12T11:29:42.595Z,5.50
2017-12-12T11:32:14.416Z,5.50
2017-12-12T11:34:45.827Z,5.50
2017-12-12T11:37:14.798Z,5.70
2017-12-12T11:39:44.229Z,5.70
2017-12-12T11:42:11.808Z,5.80
2017-12-12T11:44:40.162Z,5.90
2017-12-12T11:47:10.646Z,5.90
2017-12-12T11:49:41.159Z,6.00
2017-12-12T11:52:09.509Z,6.10
2017-12-12T11:54:39.380Z,6.00
2017-12-12T11:57:08.887Z,6.00
2017-12-12T11:59:38.587Z,6.10
2017-12-12T12:02:09.287Z,6.10
2017-12-12T12:04:39.776Z,6.10
2017-12-12T12:07:09.839Z,6.00
2017-12-12T12:09:39.054Z,6.00
2017-12-12T12:12:07.456Z,6.00
2017-12-12T12:14:37.195Z,6.00
2017-12-12T12:17:12.271Z,6.00
2017-12-12T12:19:41.906Z,6.10
2017-12-12T12:22:12.507Z,6.10
2017-12-12T12:24:41.599Z,6.10
2017-12-12T12:27:11.840Z,6.10
2017-12-12T12:29:40.895Z,6.10
2017-12-12T12:32:19.407Z,6.00
2017-12-12T12:34:48.993Z,6.00
2017-12-12T12:37:24.844Z,6.10
2017-12-12T12:39:52.366Z,6.10
2017-12-12T12:42:21.502Z,6.30
2017-12-12T12:44:51.479Z,6.20
2017-12-12T12:47:21.071Z,6.20
2017-12-12T12:49:48.962Z,6.30
2017-12-12T12:52:25.387Z,6.20
2017-12-12T12:54:57.527Z,6.30
2017-12-12T12:57:28.022Z,6.30
2017-12-12T12:59:56.388Z,6.30
2017-12-12T13:02:24.775Z,6.20
2017-12-12T13:04:54.154Z,6.30
2017-12-12T13:07:22.355Z,6.20
2017-12-12T13:09:53.291Z,6.20
2017-12-12T13:12:28.329Z,6.20
2017-12-12T13:15:06.350Z,6.20
2017-12-12T13:17:33.926Z,6.20
2017-12-12T13:20:02.873Z,6.20
2017-12-12T13:22:34.558Z,6.10
2017-12-12T13:25:04.951Z,6.10
2017-12-12T13:27:33.303Z,6.10
2017-12-12T13:30:04.084Z,5.80
2017-12-12T13:32:34.035Z,5.70
2017-12-12T13:35:05.679Z,5.60
2017-12-12T13:37:35.646Z,5.40
2017-12-12T13:40:16.215Z,5.30
2017-12-12T13:42:45.468Z,5.30
2017-12-12T13:47:50.355Z,5.20
2017-12-12T13:50:27.377Z,5.10
2017-12-12T13:52:58.891Z,5.10
2017-12-12T13:55:32.071Z,5.00
2017-12-12T13:58:03.575Z,4.90
2017-12-12T14:00:33.494Z,4.90
2017-12-12T14:05:40.887Z,4.80
2017-12-12T14:08:09.119Z,4.80
2017-12-12T14:10:37.584Z,4.80
2017-12-12T14:13:06.696Z,4.70
2017-12-12T14:15:37.880Z,4.70
2017-12-12T14:18:07.944Z,4.60
2017-12-12T14:20:37.488Z,4.70
2017-12-12T14:23:05.989Z,4.60
2017-12-12T14:25:37.443Z,4.60
2017-12-12T14:28:11.717Z,4.40
2017-12-12T14:30:44.554Z,4.40
2017-12-12T14:33:16.327Z,4.20
2017-12-12T14:35:46.841Z,4.10
2017-12-12T14:38:18.055Z,4.00
2017-12-12T14:40:49.151Z,4.10
2017-12-12T14:43:16.683Z,4.00
2017-12-12T14:45:45.189Z,4.10
2017-12-12T14:48:15.675Z,4.00
2017-12-12T14:50:45.844Z,4.00
2017-12-12T14:53:16.507Z,3.90
2017-12-12T14:55:44.611Z,3.80
2017-12-12T14:58:12.961Z,3.80
2017-12-12T15:00:45.373Z,3.70
2017-12-12T15:03:15.653Z,3.50
2017-12-12T15:05:48.692Z,3.50
2017-12-12T15:08:25.795Z,3.40
2017-12-12T15:10:55.173Z,3.40
2017-12-12T15:13:27.896Z,3.30
2017-12-12T15:15:58.621Z,3.30
2017-12-12T15:18:28.795Z,3.30
2017-12-12T15:20:58.726Z,3.20
2017-12-12T15:23:28.847Z,3.30
2017-12-12T15:25:57.275Z,3.20
2017-12-12T15:28:27.601Z,3.30
2017-12-12T15:30:55.973Z,3.30
2017-12-12T15:33:23.536Z,3.20
2017-12-12T15:35:52.634Z,3.20
2017-12-12T15:38:26.528Z,3.10
2017-12-12T15:40:56.860Z,3.20
2017-12-12T15:43:26.760Z,3.20
2017-12-12T15:45:59.250Z,3.10
2017-12-12T15:48:28.449Z,3.10
2017-12-12T15:50:56.797Z,3.00
2017-12-12T15:53:25.847Z,3.10
2017-12-12T15:55:57.518Z,3.10
2017-12-12T15:58:25.903Z,3.10
2017-12-12T16:00:55.776Z,3.10
2017-12-12T16:03:24.903Z,3.10
2017-12-12T16:05:55.498Z,3.00
2017-12-12T16:08:23.958Z,3.00
2017-12-12T16:10:52.370Z,3.10
2017-12-12T16:13:21.681Z,3.10
2017-12-12T16:15:49.288Z,3.10
2017-12-12T16:18:22.581Z,3.20
2017-12-12T16:21:06.691Z,3.10
2017-12-12T16:23:43.836Z,3.20
2017-12-12T16:26:36.325Z,3.20
2017-12-12T16:38:20.150Z,3.20
2017-12-12T16:40:51.563Z,3.10
2017-12-12T16:43:40.684Z,3.30
2017-12-12T16:46:14.512Z,3.20
2017-12-12T18:13:54.081Z,3.20
2017-12-12T18:16:36.641Z,3.10
2017-12-12T18:19:23.688Z,3.10
2017-12-12T18:21:59.247Z,3.00
2017-12-12T18:30:48.373Z,3.00
2017-12-12T18:33:18.387Z,2.90
2017-12-12T18:35:51.994Z,2.80
2017-12-12T18:38:29.411Z,2.80
2017-12-12T18:41:01.830Z,2.80
2017-12-12T18:43:32.618Z,2.60
2017-12-12T18:48:52.837Z,2.60
2017-12-12T18:51:22.528Z,2.60
2017-12-12T18:53:56.630Z,2.40
2017-12-12T18:56:39.496Z,2.40
2017-12-12T18:59:10.839Z,2.30
2017-12-12T19:01:39.606Z,2.30
2017-12-12T19:04:11.759Z,2.30
2017-12-12T19:06:40.992Z,2.30
2017-12-12T19:09:11.600Z,2.30
2017-12-12T19:11:42.004Z,2.30
2017-12-12T19:14:11.183Z,2.20
2017-12-12T19:16:42.376Z,2.20
2017-12-12T19:19:14.516Z,2.20
2017-12-12T19:21:44.324Z,2.00
2017-12-12T19:24:14.212Z,2.00
2017-12-12T19:26:43.242Z,2.00
2017-12-12T19:29:12.117Z,2.00
2017-12-12T19:31:44.772Z,1.90
2017-12-12T19:34:15.813Z,1.80
2017-12-12T19:36:44.900Z,1.70
2017-12-12T19:39:12.487Z,1.70
2017-12-12T19:41:43.935Z,1.70
2017-12-12T19:44:11.777Z,1.60
2017-12-12T19:46:41.008Z,1.60
2017-12-12T19:49:11.883Z,1.60
2017-12-12T19:51:45.320Z,1.70
2017-12-12T19:54:32.303Z,1.70
2017-12-12T19:57:03.369Z,1.70
2017-12-12T19:59:32.815Z,1.70
2017-12-12T20:02:01.546Z,1.60
2017-12-12T20:04:31.017Z,1.70
2017-12-12T20:07:00.650Z,1.70
2017-12-12T20:09:30.618Z,1.60
2017-12-12T20:12:00.878Z,1.70
2017-12-12T20:14:30.590Z,1.60
2017-12-12T20:17:14.402Z,1.70
2017-12-12T20:19:43.189Z,1.70
2017-12-12T20:22:14.446Z,1.70
2017-12-12T20:24:42.706Z,1.80
2017-12-12T20:27:14.093Z,1.80
2017-12-12T20:29:46.815Z,1.80
2017-12-12T20:32:18.105Z,1.80
2017-12-12T20:34:46.620Z,1.80
2017-12-12T20:37:15.040Z,1.80
2017-12-12T20:42:18.686Z,2.10
2017-12-12T20:44:48.080Z,2.00
2017-12-12T20:47:15.718Z,1.90
2017-12-12T20:49:45.032Z,1.90
2017-12-12T20:52:13.648Z,1.90
2017-12-12T20:54:41.743Z,2.00
2017-12-12T20:57:14.674Z,2.00
2017-12-12T20:59:45.730Z,2.00
2017-12-12T21:02:17.419Z,1.90
2017-12-12T21:04:46.407Z,2.00
2017-12-12T21:07:20.389Z,2.00
2017-12-12T21:09:49.364Z,2.10
2017-12-12T21:12:18.168Z,2.20
2017-12-12T21:14:49.680Z,2.20
2017-12-12T21:17:20.396Z,2.30
2017-12-12T21:19:48.526Z,2.30
2017-12-12T21:22:16.146Z,2.30
2017-12-12T21:24:43.682Z,2.50
2017-12-12T21:27:12.191Z,2.50
2017-12-12T21:29:42.011Z,2.60
2017-12-12T21:32:10.774Z,2.60
2017-12-12T21:34:38.385Z,2.50
2017-12-12T21:37:07.554Z,2.60
2017-12-12T21:39:37.035Z,2.60
2017-12-12T21:42:07.913Z,2.40
2017-12-12T21:44:38.679Z,2.40
2017-12-12T21:47:08.887Z,2.40
2017-12-12T21:49:39.278Z,2.30
2017-12-12T21:52:08.927Z,2.30
2017-12-12T21:54:39.897Z,2.20
2017-12-12T21:57:09.319Z,2.20
2017-12-12T21:59:38.741Z,2.10
2017-12-12T22:02:09.868Z,2.10
2017-12-12T22:04:38.833Z,2.10
2017-12-12T22:07:08.190Z,2.10
2017-12-12T22:09:40.299Z,2.10
2017-12-12T22:12:09.719Z,2.10
2017-12-12T22:14:38.784Z,2.10
2017-12-12T22:17:07.527Z,2.10
2017-12-12T22:19:39.686Z,2.00
2017-12-12T22:22:09.183Z,2.00
2017-12-12T22:24:44.888Z,2.00
2017-12-12T22:27:17.020Z,2.00
2017-12-12T22:29:47.520Z,2.00
2017-12-12T22:32:16.026Z,2.10
2017-12-12T22:34:43.617Z,2.10
2017-12-12T22:37:11.175Z,2.20
2017-12-12T22:39:40.425Z,2.10
2017-12-12T22:42:10.339Z,2.00
2017-12-12T22:44:40.424Z,2.10
2017-12-12T22:47:08.851Z,2.00
2017-12-12T22:49:37.266Z,2.10
2017-12-12T22:52:04.874Z,2.00
2017-12-12T22:54:32.720Z,2.00
2017-12-12T22:57:01.218Z,1.90
2017-12-12T22:59:28.925Z,1.90
2017-12-12T23:01:56.771Z,1.90
2017-12-12T23:04:24.336Z,1.80
2017-12-12T23:06:52.621Z,1.70
2017-12-12T23:09:20.676Z,1.60
2017-12-12T23:11:49.288Z,1.60
2017-12-12T23:14:17.051Z,1.60
2017-12-12T23:16:44.817Z,1.50
2017-12-12T23:19:26.224Z,1.50
2017-12-12T23:21:54.973Z,1.50
2017-12-12T23:24:40.455Z,1.40
2017-12-12T23:27:10.001Z,1.50
2017-12-12T23:29:37.665Z,1.40
2017-12-12T23:32:21.897Z,1.50
2017-12-12T23:34:57.421Z,1.40
2017-12-12T23:37:30.275Z,1.40
2017-12-12T23:39:59.432Z,1.30
2017-12-12T23:42:27.769Z,1.40
2017-12-12T23:44:58.003Z,1.30
2017-12-12T23:53:38.094Z,1.30
2017-12-12T23:56:28.626Z,1.50
2017-12-12T23:59:04.199Z,1.40
